Shoukeimaruno.3 — JI3587 — position and weather

sailwx.info

Track history (hours):
 
Tides and Currents Weather Stations Pressure Air Temp Water Temp Dewpoint Dewpoint Depression Visibility Wind Speed Wind Dir Waves Ship Positions

Shoukeimaruno.3

Last reported at 2017-Apr-10 10:44 UTC. Time now 2017-Apr-24 03:40 UTC.
Position N 34°54' E 139°47'.
Warning: this ship's position is 13 days out of date.

Length 77 m; draft 4.2 m.

Type: Cargo ship. MMSI: 431300325.

Date/timePositionNaut miles runAvg speedWind from/ knotsBaromVisibWave heightAir tempDewpointWater temp
2017-Apr-10 10:44N 34°54' E 139°47'313.4
2017-Apr-10 10:30N 34°57' E 139°44'612.6
2017-Apr-10 10:00N 35°03' E 139°44'612.7
2017-Apr-10 09:30N 35°09' E 139°46'612.8
2017-Apr-10 09:00N 35°16' E 139°46'612.7
2017-Apr-10 08:30N 35°21' E 139°42'5 9.5
2017-Apr-10 08:00N 35°24' E 139°38'0 0.2
2017-Apr-10 07:30N 35°24' E 139°37'0 0.0
2017-Apr-10 07:01N 35°24' E 139°37'0 0.0
2017-Apr-10 06:30N 35°24' E 139°37'0 0.0
2017-Apr-10 06:00N 35°24' E 139°37'0 0.0
2017-Apr-10 05:31N 35°24' E 139°37'0 0.0
2017-Apr-10 05:00N 35°24' E 139°37'0 0.0
2017-Apr-10 04:30N 35°24' E 139°37'0 0.0
2017-Apr-10 04:00N 35°24' E 139°37'2 3.6
2017-Apr-10 03:30N 35°24' E 139°40'2 3.2
2017-Apr-10 03:00N 35°24' E 139°38'0 0.3
2017-Apr-10 02:30N 35°24' E 139°38'2 3.9
2017-Apr-10 02:00N 35°24' E 139°40'0 0.8
2017-Apr-10 01:29N 35°23' E 139°40'0 0.0
2017-Apr-10 00:59N 35°23' E 139°40'0 0.0
2017-Apr-10 00:29N 35°23' E 139°40'0 0.0
2017-Apr-09 23:59N 35°23' E 139°40'0 0.0
2017-Apr-09 23:29N 35°23' E 139°40'0 0.0
2017-Apr-09 22:59N 35°23' E 139°40'0 0.0
2017-Apr-09 22:29N 35°23' E 139°40'0 0.0
2017-Apr-09 21:59N 35°23' E 139°40'0 0.0
2017-Apr-09 21:26N 35°23' E 139°40'0 0.0
2017-Apr-09 20:59N 35°23' E 139°40'0 0.0
2017-Apr-09 20:29N 35°23' E 139°40'0 0.0
2017-Apr-09 19:59N 35°23' E 139°40'0 0.0
2017-Apr-09 19:29N 35°23' E 139°40'0 0.0
2017-Apr-09 18:59N 35°23' E 139°40'0 0.0
2017-Apr-09 18:29N 35°23' E 139°40'0 0.0
2017-Apr-09 17:59N 35°23' E 139°40'0 0.0
2017-Apr-09 17:29N 35°23' E 139°40'0 0.0
2017-Apr-09 16:59N 35°23' E 139°40'0 0.1
2017-Apr-09 16:29N 35°23' E 139°40'0 0.0
2017-Apr-09 15:59N 35°23' E 139°40'0 0.0
2017-Apr-09 15:29N 35°23' E 139°40'0 0.0
2017-Apr-09 14:59N 35°23' E 139°40'0 0.0
2017-Apr-09 13:59N 35°23' E 139°40'0 0.0
2017-Apr-09 13:29N 35°23' E 139°40'0 0.0
2017-Apr-09 12:59N 35°23' E 139°40'0 0.0
2017-Apr-09 12:29N 35°23' E 139°40'0 0.0
2017-Apr-09 11:59N 35°23' E 139°40'0 0.0
2017-Apr-09 11:29N 35°23' E 139°40'0 0.0
2017-Apr-09 10:59N 35°23' E 139°40'0 0.0
2017-Apr-09 10:26N 35°23' E 139°40'0 0.0
2017-Apr-09 09:59N 35°23' E 139°40'0 0.0
2017-Apr-09 09:29N 35°23' E 139°40'0 0.0
2017-Apr-09 08:59N 35°23' E 139°40'0 0.0
2017-Apr-09 08:29N 35°23' E 139°40'0 0.0
2017-Apr-09 07:59N 35°23' E 139°40'0 0.0
2017-Apr-09 07:29N 35°23' E 139°40'0 0.0
2017-Apr-09 06:59N 35°23' E 139°40'0 0.0
2017-Apr-09 06:29N 35°23' E 139°40'0 0.0
2017-Apr-09 05:59N 35°23' E 139°40'0 0.0
2017-Apr-09 05:29N 35°23' E 139°40'0 0.0
2017-Apr-09 04:59N 35°23' E 139°40'0 0.0
2017-Apr-09 04:29N 35°23' E 139°40'2 4.4
2017-Apr-09 04:00N 35°21' E 139°42'612.8
2017-Apr-09 03:31N 35°16' E 139°46'612.0
2017-Apr-09 03:00N 35°10' E 139°46'612.1
2017-Apr-09 02:31N 35°04' E 139°45'612.1
2017-Apr-09 02:00N 34°58' E 139°44'  
Track history (hours):
 
Tides and Currents Weather Stations Pressure Air Temp Water Temp Dewpoint Dewpoint Depression Visibility Wind Speed Wind Dir Waves Ship Positions

Shoukeimaruno.3

Last reported at 2017-Apr-10 10:44 UTC. Time now 2017-Apr-24 03:40 UTC.
Position N 34°54' E 139°47'.
Warning: this ship's position is 13 days out of date.

Length 77 m; draft 4.2 m.

Type: Cargo ship. MMSI: 431300325.

Date/timePositionNaut miles runAvg speedWind from/ knotsBaromVisibWave heightAir tempDewpointWater temp
2017-Apr-10 10:44N 34°54' E 139°47'313.4
2017-Apr-10 10:30N 34°57' E 139°44'612.6
2017-Apr-10 10:00N 35°03' E 139°44'612.7
2017-Apr-10 09:30N 35°09' E 139°46'612.8
2017-Apr-10 09:00N 35°16' E 139°46'612.7
2017-Apr-10 08:30N 35°21' E 139°42'5 9.5
2017-Apr-10 08:00N 35°24' E 139°38'0 0.2
2017-Apr-10 07:30N 35°24' E 139°37'0 0.0
2017-Apr-10 07:01N 35°24' E 139°37'0 0.0
2017-Apr-10 06:30N 35°24' E 139°37'0 0.0
2017-Apr-10 06:00N 35°24' E 139°37'0 0.0
2017-Apr-10 05:31N 35°24' E 139°37'0 0.0
2017-Apr-10 05:00N 35°24' E 139°37'0 0.0
2017-Apr-10 04:30N 35°24' E 139°37'0 0.0
2017-Apr-10 04:00N 35°24' E 139°37'2 3.6
2017-Apr-10 03:30N 35°24' E 139°40'2 3.2
2017-Apr-10 03:00N 35°24' E 139°38'0 0.3
2017-Apr-10 02:30N 35°24' E 139°38'2 3.9
2017-Apr-10 02:00N 35°24' E 139°40'0 0.8
2017-Apr-10 01:29N 35°23' E 139°40'0 0.0
2017-Apr-10 00:59N 35°23' E 139°40'0 0.0
2017-Apr-10 00:29N 35°23' E 139°40'0 0.0
2017-Apr-09 23:59N 35°23' E 139°40'0 0.0
2017-Apr-09 23:29N 35°23' E 139°40'0 0.0
2017-Apr-09 22:59N 35°23' E 139°40'0 0.0
2017-Apr-09 22:29N 35°23' E 139°40'0 0.0
2017-Apr-09 21:59N 35°23' E 139°40'0 0.0
2017-Apr-09 21:26N 35°23' E 139°40'0 0.0
2017-Apr-09 20:59N 35°23' E 139°40'0 0.0
2017-Apr-09 20:29N 35°23' E 139°40'0 0.0
2017-Apr-09 19:59N 35°23' E 139°40'0 0.0
2017-Apr-09 19:29N 35°23' E 139°40'0 0.0
2017-Apr-09 18:59N 35°23' E 139°40'0 0.0
2017-Apr-09 18:29N 35°23' E 139°40'0 0.0
2017-Apr-09 17:59N 35°23' E 139°40'0 0.0
2017-Apr-09 17:29N 35°23' E 139°40'0 0.0
2017-Apr-09 16:59N 35°23' E 139°40'0 0.1
2017-Apr-09 16:29N 35°23' E 139°40'0 0.0
2017-Apr-09 15:59N 35°23' E 139°40'0 0.0
2017-Apr-09 15:29N 35°23' E 139°40'0 0.0
2017-Apr-09 14:59N 35°23' E 139°40'0 0.0
2017-Apr-09 13:59N 35°23' E 139°40'0 0.0
2017-Apr-09 13:29N 35°23' E 139°40'0 0.0
2017-Apr-09 12:59N 35°23' E 139°40'0 0.0
2017-Apr-09 12:29N 35°23' E 139°40'0 0.0
2017-Apr-09 11:59N 35°23' E 139°40'0 0.0
2017-Apr-09 11:29N 35°23' E 139°40'0 0.0
2017-Apr-09 10:59N 35°23' E 139°40'0 0.0
2017-Apr-09 10:26N 35°23' E 139°40'0 0.0
2017-Apr-09 09:59N 35°23' E 139°40'0 0.0
2017-Apr-09 09:29N 35°23' E 139°40'0 0.0
2017-Apr-09 08:59N 35°23' E 139°40'0 0.0
2017-Apr-09 08:29N 35°23' E 139°40'0 0.0
2017-Apr-09 07:59N 35°23' E 139°40'0 0.0
2017-Apr-09 07:29N 35°23' E 139°40'0 0.0
2017-Apr-09 06:59N 35°23' E 139°40'0 0.0
2017-Apr-09 06:29N 35°23' E 139°40'0 0.0
2017-Apr-09 05:59N 35°23' E 139°40'0 0.0
2017-Apr-09 05:29N 35°23' E 139°40'0 0.0
2017-Apr-09 04:59N 35°23' E 139°40'0 0.0
2017-Apr-09 04:29N 35°23' E 139°40'2 4.4
2017-Apr-09 04:00N 35°21' E 139°42'612.8
2017-Apr-09 03:31N 35°16' E 139°46'612.0
2017-Apr-09 03:00N 35°10' E 139°46'612.1
2017-Apr-09 02:31N 35°04' E 139°45'612.1
2017-Apr-09 02:00N 34°58' E 139°44'  

Dump ship's entire track history